createdAt,value
2019-04-27T00:00:15.280Z,9.80
2019-04-27T00:03:02.161Z,9.80
2019-04-27T00:05:43.407Z,9.80
2019-04-27T00:08:48.397Z,9.70
2019-04-27T00:11:25.089Z,9.70
2019-04-27T00:13:58.746Z,9.60
2019-04-27T00:16:50.474Z,9.60
2019-04-27T00:19:43.863Z,9.50
2019-04-27T00:22:35.893Z,9.40
2019-04-27T00:25:09.994Z,9.40
2019-04-27T00:27:43.674Z,9.30
2019-04-27T00:30:18.436Z,9.30
2019-04-27T00:32:53.523Z,9.30
2019-04-27T00:35:40.162Z,9.30
2019-04-27T00:38:47.256Z,9.40
2019-04-27T00:41:20.762Z,9.50
2019-04-27T00:43:53.873Z,9.60
2019-04-27T00:46:27.356Z,9.70
2019-04-27T00:49:01.343Z,9.70
2019-04-27T00:51:34.932Z,9.60
2019-04-27T00:54:08.109Z,9.50
2019-04-27T00:56:59.852Z,9.50
2019-04-27T01:00:05.152Z,9.40
2019-04-27T01:02:53.637Z,9.40
2019-04-27T01:05:28.188Z,9.20
2019-04-27T01:08:03.686Z,9.10
2019-04-27T01:10:36.936Z,9.00
2019-04-27T01:13:10.046Z,8.90
2019-04-27T01:15:43.485Z,8.90
2019-04-27T01:18:16.748Z,8.80
2019-04-27T01:20:50.505Z,8.70
2019-04-27T01:23:23.572Z,8.70
2019-04-27T01:26:14.847Z,8.70
2019-04-27T01:29:00.515Z,8.70
2019-04-27T01:31:34.160Z,8.80
2019-04-27T01:34:09.067Z,8.80
2019-04-27T01:36:42.573Z,8.70
2019-04-27T01:39:18.842Z,8.70
2019-04-27T01:41:52.328Z,8.70
2019-04-27T01:44:26.030Z,8.80
2019-04-27T01:47:00.965Z,8.80
2019-04-27T01:49:34.871Z,8.90
2019-04-27T01:52:09.624Z,8.90
2019-04-27T01:54:43.361Z,8.90
2019-04-27T01:57:16.556Z,8.80
2019-04-27T01:59:49.288Z,8.90
2019-04-27T02:02:41.466Z,8.90
2019-04-27T02:05:30.274Z,8.80
2019-04-27T02:08:04.249Z,8.70
2019-04-27T02:10:39.414Z,8.60
2019-04-27T02:13:12.608Z,8.50
2019-04-27T02:15:46.191Z,8.50
2019-04-27T02:18:19.511Z,8.50
2019-04-27T02:20:52.803Z,8.50
2019-04-27T02:23:26.117Z,8.50
2019-04-27T02:25:59.481Z,8.50
2019-04-27T02:28:55.260Z,8.60
2019-04-27T02:31:46.319Z,8.60
2019-04-27T02:34:22.905Z,8.40
2019-04-27T02:36:55.927Z,8.40
2019-04-27T02:39:29.789Z,8.40
2019-04-27T02:42:03.328Z,8.30
2019-04-27T02:44:40.431Z,8.40
2019-04-27T02:47:13.906Z,8.50
2019-04-27T02:49:50.376Z,8.50
2019-04-27T02:52:32.387Z,8.60
2019-04-27T02:55:06.445Z,8.50
2019-04-27T02:57:41.161Z,8.30
2019-04-27T03:00:14.705Z,8.10
2019-04-27T03:02:52.497Z,8.10
2019-04-27T03:05:34.768Z,8.10
2019-04-27T03:08:10.210Z,8.20
2019-04-27T03:10:43.071Z,8.40
2019-04-27T03:13:41.394Z,8.50
2019-04-27T03:16:33.462Z,8.60
2019-04-27T03:19:43.448Z,8.70
2019-04-27T03:22:39.799Z,8.70
2019-04-27T03:25:32.701Z,8.70
2019-04-27T03:28:14.188Z,8.70
2019-04-27T03:30:51.432Z,8.70
2019-04-27T03:33:22.886Z,8.60
2019-04-27T03:35:56.362Z,8.50
2019-04-27T03:38:30.216Z,8.40
2019-04-27T03:41:03.873Z,8.30
2019-04-27T03:43:36.954Z,8.30
2019-04-27T03:46:10.663Z,8.40
2019-04-27T03:48:44.966Z,8.40
2019-04-27T03:51:37.101Z,8.50
2019-04-27T03:54:29.643Z,8.50
2019-04-27T03:57:19.913Z,8.60
2019-04-27T04:00:00.096Z,8.60
2019-04-27T04:02:33.796Z,8.70
2019-04-27T04:05:09.800Z,8.80
2019-04-27T04:07:47.062Z,8.80
2019-04-27T04:10:21.521Z,8.80
2019-04-27T04:13:03.681Z,8.90
2019-04-27T04:15:44.352Z,9.00
2019-04-27T04:18:19.629Z,9.10
2019-04-27T04:20:52.797Z,9.20
2019-04-27T04:23:25.687Z,9.20
2019-04-27T04:25:59.734Z,9.20
2019-04-27T04:28:33.392Z,9.30
2019-04-27T04:31:10.842Z,9.20
2019-04-27T04:33:42.100Z,9.20
2019-04-27T04:36:15.326Z,9.30
2019-04-27T04:38:50.431Z,9.20
2019-04-27T04:41:35.187Z,9.20
2019-04-27T04:44:30.001Z,9.10
2019-04-27T04:47:30.618Z,9.10
2019-04-27T04:50:11.373Z,9.10
2019-04-27T04:52:42.346Z,9.00
2019-04-27T04:55:15.238Z,9.00
2019-04-27T04:57:49.339Z,9.10
2019-04-27T05:00:23.244Z,9.10
2019-04-27T05:02:56.966Z,9.10
2019-04-27T05:05:30.483Z,9.20
2019-04-27T05:08:05.185Z,9.20
2019-04-27T05:10:39.532Z,9.40
2019-04-27T05:13:13.318Z,9.50
2019-04-27T05:15:48.668Z,9.20
2019-04-27T05:18:22.431Z,9.20
2019-04-27T05:21:03.837Z,9.20
2019-04-27T05:23:38.795Z,9.30
2019-04-27T05:26:11.611Z,9.40
2019-04-27T05:28:49.076Z,9.70
2019-04-27T05:31:23.447Z,9.90
2019-04-27T05:33:59.344Z,10.20
2019-04-27T05:36:32.786Z,10.40
2019-04-27T05:39:09.593Z,10.60
2019-04-27T05:41:43.111Z,10.60
2019-04-27T05:44:45.671Z,10.80
2019-04-27T05:47:22.240Z,11.00
2019-04-27T05:50:18.385Z,11.10
2019-04-27T05:52:49.761Z,11.10
2019-04-27T05:55:31.642Z,11.40
2019-04-27T05:58:05.518Z,11.60
2019-04-27T06:00:39.421Z,12.00
2019-04-27T06:03:15.473Z,12.10
2019-04-27T06:05:48.962Z,12.20
2019-04-27T06:08:23.597Z,12.40
2019-04-27T06:10:56.911Z,12.50
2019-04-27T06:13:30.992Z,12.30
2019-04-27T06:16:04.588Z,12.20
2019-04-27T06:18:39.128Z,12.00
2019-04-27T06:21:12.792Z,12.30
2019-04-27T06:23:46.538Z,12.50
2019-04-27T06:26:24.649Z,12.40
2019-04-27T06:28:59.515Z,12.10
2019-04-27T06:31:34.434Z,11.90
2019-04-27T06:34:09.841Z,11.40
2019-04-27T06:36:45.358Z,11.30
2019-04-27T06:39:20.650Z,11.10
2019-04-27T06:41:55.685Z,11.40
2019-04-27T06:44:32.037Z,11.60
2019-04-27T06:47:05.958Z,12.20
2019-04-27T06:49:43.573Z,13.10
2019-04-27T06:52:18.690Z,13.90
2019-04-27T06:54:52.824Z,14.70
2019-04-27T06:57:26.986Z,15.40
2019-04-27T07:00:00.652Z,16.20
2019-04-27T07:02:34.017Z,16.10
2019-04-27T07:05:08.929Z,16.00
2019-04-27T07:07:43.164Z,16.40
2019-04-27T07:10:18.551Z,17.00
2019-04-27T07:12:54.520Z,16.60
2019-04-27T07:15:28.764Z,16.30
2019-04-27T07:18:04.080Z,16.60
2019-04-27T07:20:38.869Z,16.50
2019-04-27T07:23:13.937Z,17.50
2019-04-27T07:25:48.777Z,17.10
2019-04-27T07:28:22.948Z,16.40
2019-04-27T07:30:59.518Z,16.50
2019-04-27T07:33:32.959Z,16.80
2019-04-27T07:36:06.325Z,17.70
2019-04-27T07:38:45.658Z,17.80
2019-04-27T07:41:20.826Z,18.00
2019-04-27T07:44:01.523Z,18.60
2019-04-27T07:46:35.632Z,19.40
2019-04-27T07:49:09.603Z,20.10
2019-04-27T07:51:44.092Z,20.50
2019-04-27T07:54:18.987Z,20.70
2019-04-27T07:56:53.128Z,21.50
2019-04-27T07:59:27.358Z,21.70
2019-04-27T08:02:00.534Z,22.10
2019-04-27T08:04:33.770Z,22.10
2019-04-27T08:07:09.035Z,22.60
2019-04-27T08:09:42.727Z,22.50
2019-04-27T08:12:16.504Z,22.40
2019-04-27T08:14:50.057Z,23.20
2019-04-27T08:17:23.408Z,23.60
2019-04-27T08:19:59.358Z,23.10
2019-04-27T08:22:34.914Z,22.40
2019-04-27T08:25:09.528Z,22.70
2019-04-27T08:28:14.272Z,22.80
2019-04-27T08:31:10.868Z,23.20
2019-04-27T08:33:48.669Z,23.70
2019-04-27T08:36:22.730Z,24.00
2019-04-27T08:38:56.494Z,24.50
2019-04-27T08:41:30.722Z,24.00
2019-04-27T08:44:04.359Z,23.80
2019-04-27T08:46:38.577Z,24.00
2019-04-27T08:49:18.504Z,24.50
2019-04-27T08:51:59.240Z,24.50
2019-04-27T08:54:30.160Z,24.70
2019-04-27T08:57:04.382Z,24.90
2019-04-27T08:59:39.280Z,24.20
2019-04-27T09:02:13.635Z,24.30
2019-04-27T09:04:49.332Z,24.50
2019-04-27T09:07:41.339Z,25.00
2019-04-27T09:10:23.373Z,24.80
2019-04-27T09:13:16.184Z,25.40
2019-04-27T09:16:12.716Z,25.70
2019-04-27T09:18:46.832Z,26.30
2019-04-27T09:21:20.277Z,26.10
2019-04-27T09:23:53.838Z,25.90
2019-04-27T09:26:29.006Z,25.90
2019-04-27T09:29:03.675Z,26.10
2019-04-27T09:31:37.327Z,26.70
2019-04-27T09:34:12.769Z,26.50
2019-04-27T09:36:47.030Z,26.50
2019-04-27T09:39:20.849Z,26.80
2019-04-27T09:41:57.187Z,26.50
2019-04-27T09:44:31.562Z,26.30
2019-04-27T09:47:06.137Z,26.90
2019-04-27T09:49:40.382Z,26.80
2019-04-27T09:52:24.376Z,27.00
2019-04-27T09:54:51.244Z,27.10
2019-04-27T09:57:26.019Z,27.10
2019-04-27T09:59:59.738Z,27.10
2019-04-27T10:02:33.662Z,27.00
2019-04-27T10:05:09.357Z,26.90
2019-04-27T10:07:42.659Z,27.00
2019-04-27T10:10:16.834Z,27.10
2019-04-27T10:12:50.642Z,27.30
2019-04-27T10:15:24.329Z,27.40
2019-04-27T10:17:58.525Z,26.80
2019-04-27T10:20:31.960Z,26.90
2019-04-27T10:23:06.236Z,27.00
2019-04-27T10:25:40.833Z,27.10
2019-04-27T10:28:14.820Z,27.10
2019-04-27T10:30:48.052Z,27.60
2019-04-27T10:33:22.391Z,27.60
2019-04-27T10:35:56.533Z,27.90
2019-04-27T10:38:30.922Z,28.00
2019-04-27T10:41:05.940Z,28.00
2019-04-27T10:43:40.310Z,27.90
2019-04-27T10:46:15.673Z,28.20
2019-04-27T10:48:49.559Z,28.10
2019-04-27T10:51:22.899Z,27.80
2019-04-27T10:53:58.988Z,28.10
2019-04-27T10:56:35.940Z,27.70
2019-04-27T10:59:11.105Z,27.70
2019-04-27T11:01:45.950Z,28.00
2019-04-27T11:04:47.717Z,27.80
2019-04-27T11:07:23.195Z,28.30
2019-04-27T11:09:57.597Z,28.30
2019-04-27T11:12:32.684Z,28.20
2019-04-27T11:15:08.568Z,28.20
2019-04-27T11:17:45.971Z,28.30
2019-04-27T11:20:20.995Z,28.30
2019-04-27T11:23:06.571Z,28.60
2019-04-27T11:25:32.281Z,29.00
2019-04-27T11:28:07.311Z,28.90
2019-04-27T11:30:41.133Z,28.20
2019-04-27T11:33:16.169Z,26.90
2019-04-27T11:35:59.419Z,25.50
2019-04-27T11:38:34.265Z,25.70
2019-04-27T11:41:08.521Z,26.80
2019-04-27T11:43:44.007Z,27.30
2019-04-27T11:46:18.149Z,28.30
2019-04-27T11:48:53.146Z,28.20
2019-04-27T11:51:27.708Z,29.00
2019-04-27T11:54:02.388Z,29.20
2019-04-27T11:56:38.152Z,29.50
2019-04-27T11:59:13.537Z,29.80
2019-04-27T12:01:48.980Z,28.80
2019-04-27T12:04:29.348Z,29.10
2019-04-27T12:07:03.000Z,28.80
2019-04-27T12:09:38.295Z,28.40
2019-04-27T12:12:15.964Z,28.60
2019-04-27T12:14:53.592Z,26.70
2019-04-27T12:17:29.605Z,25.50
2019-04-27T12:20:04.571Z,26.10
2019-04-27T12:22:38.460Z,26.70
2019-04-27T12:25:16.020Z,27.80
2019-04-27T12:28:07.548Z,28.10
2019-04-27T12:31:02.291Z,25.40
2019-04-27T12:33:38.076Z,24.40
2019-04-27T12:36:13.608Z,25.30
2019-04-27T12:38:46.910Z,26.60
2019-04-27T12:41:20.757Z,27.20
2019-04-27T12:43:56.036Z,27.60
2019-04-27T12:46:30.485Z,28.10
2019-04-27T12:49:05.950Z,27.40
2019-04-27T12:51:42.291Z,26.80
2019-04-27T12:54:31.751Z,26.40
2019-04-27T12:57:23.473Z,26.30
2019-04-27T13:00:24.255Z,25.80
2019-04-27T13:02:59.616Z,25.50
2019-04-27T13:05:35.898Z,25.90
2019-04-27T13:08:09.814Z,24.50
2019-04-27T13:10:44.202Z,23.50
2019-04-27T13:13:18.181Z,23.90
2019-04-27T13:15:51.708Z,23.30
2019-04-27T13:18:25.869Z,23.50
2019-04-27T13:20:59.987Z,23.50
2019-04-27T13:23:34.970Z,24.30
2019-04-27T13:26:09.138Z,23.80
2019-04-27T13:28:44.310Z,24.50
2019-04-27T13:31:20.427Z,24.90
2019-04-27T13:33:55.783Z,23.60
2019-04-27T13:36:29.867Z,22.80
2019-04-27T13:39:06.461Z,21.70
2019-04-27T13:41:41.577Z,20.40
2019-04-27T13:44:19.187Z,20.20
2019-04-27T13:47:10.444Z,20.60
2019-04-27T13:50:00.843Z,21.30
2019-04-27T13:52:37.438Z,21.60
2019-04-27T13:55:11.395Z,21.00
2019-04-27T13:57:50.495Z,20.90
2019-04-27T14:00:21.881Z,21.50
2019-04-27T14:02:56.565Z,21.90
2019-04-27T14:05:30.675Z,23.10
2019-04-27T14:08:05.841Z,23.90
2019-04-27T14:10:40.383Z,24.90
2019-04-27T14:13:19.770Z,22.70
2019-04-27T14:15:54.511Z,22.30
2019-04-27T14:18:29.560Z,22.30
2019-04-27T14:21:04.423Z,22.40
2019-04-27T14:23:38.692Z,22.90
2019-04-27T14:26:16.249Z,23.20
2019-04-27T14:28:49.989Z,23.00
2019-04-27T14:31:24.147Z,22.90
2019-04-27T14:33:59.025Z,23.80
2019-04-27T14:36:33.330Z,24.30
2019-04-27T14:39:10.462Z,24.70
2019-04-27T14:41:44.430Z,24.40
2019-04-27T14:44:25.760Z,24.60
2019-04-27T14:46:59.817Z,23.50
2019-04-27T14:49:33.699Z,21.90
2019-04-27T14:52:12.518Z,21.90
2019-04-27T14:54:50.214Z,21.60
2019-04-27T14:57:22.788Z,21.40
2019-04-27T14:59:58.357Z,21.20
2019-04-27T15:02:31.688Z,21.10
2019-04-27T15:05:05.684Z,20.90
2019-04-27T15:07:39.968Z,20.80
2019-04-27T15:10:16.180Z,20.50
2019-04-27T15:12:50.970Z,20.50
2019-04-27T15:15:28.368Z,20.40
2019-04-27T15:18:05.197Z,20.10
2019-04-27T15:20:43.766Z,20.00
2019-04-27T15:23:17.156Z,20.10
2019-04-27T15:25:51.250Z,20.00
2019-04-27T15:28:29.146Z,20.00
2019-04-27T15:31:26.121Z,20.10
2019-04-27T15:34:23.402Z,20.00
2019-04-27T15:37:09.678Z,19.90
2019-04-27T15:40:08.375Z,20.10
2019-04-27T15:42:58.147Z,20.20
2019-04-27T15:45:32.649Z,20.10
2019-04-27T15:48:10.900Z,20.20
2019-04-27T15:50:44.864Z,20.20
2019-04-27T15:53:18.871Z,20.30
2019-04-27T15:55:53.614Z,20.20
2019-04-27T15:58:29.305Z,20.20
2019-04-27T16:01:09.110Z,20.30
2019-04-27T16:03:41.290Z,20.30
2019-04-27T16:06:15.593Z,20.40
2019-04-27T16:08:50.827Z,20.50
2019-04-27T16:11:24.520Z,20.70
2019-04-27T16:14:03.006Z,20.80
2019-04-27T16:16:38.140Z,21.00
2019-04-27T16:19:12.581Z,21.20
2019-04-27T16:21:53.512Z,21.30
2019-04-27T16:24:23.020Z,21.30
2019-04-27T16:27:02.900Z,21.10
2019-04-27T16:29:38.963Z,21.10
2019-04-27T16:32:13.155Z,20.90
2019-04-27T16:34:54.053Z,20.70
2019-04-27T16:37:56.248Z,20.50
2019-04-27T16:40:31.978Z,20.10
2019-04-27T16:43:06.381Z,20.20
2019-04-27T16:45:44.053Z,20.20
2019-04-27T16:48:18.523Z,20.30
2019-04-27T16:50:55.193Z,20.30
2019-04-27T16:53:30.206Z,20.00
2019-04-27T16:56:14.824Z,19.50
2019-04-27T16:58:56.454Z,19.20
2019-04-27T17:01:30.456Z,19.20
2019-04-27T17:04:06.340Z,19.20
2019-04-27T17:06:46.156Z,19.00
2019-04-27T17:09:18.955Z,18.90
2019-04-27T17:11:53.185Z,18.50
2019-04-27T17:14:51.073Z,18.50
2019-04-27T17:17:51.059Z,18.50
2019-04-27T17:20:25.535Z,18.30
2019-04-27T17:22:59.878Z,18.40
2019-04-27T17:25:39.766Z,18.30
2019-04-27T17:28:14.474Z,18.30
2019-04-27T17:30:48.993Z,18.30
2019-04-27T17:33:30.237Z,18.30
2019-04-27T17:36:04.219Z,18.20
2019-04-27T17:38:38.567Z,18.10
2019-04-27T17:41:13.261Z,18.20
2019-04-27T17:43:48.152Z,18.20
2019-04-27T17:46:22.934Z,18.10
2019-04-27T17:48:58.541Z,17.90
2019-04-27T17:51:35.163Z,17.60
2019-04-27T17:54:11.440Z,17.60
2019-04-27T17:56:49.425Z,17.50
2019-04-27T17:59:21.347Z,17.40
2019-04-27T18:02:01.338Z,17.30
2019-04-27T18:04:37.164Z,17.40
2019-04-27T18:07:12.295Z,17.50
2019-04-27T18:09:48.219Z,17.60
2019-04-27T18:12:25.505Z,17.60
2019-04-27T18:14:59.683Z,17.50
2019-04-27T18:17:49.945Z,17.50
2019-04-27T18:20:25.175Z,17.50
2019-04-27T18:23:10.670Z,17.40
2019-04-27T18:25:49.243Z,17.30
2019-04-27T18:28:31.832Z,17.20
2019-04-27T18:31:16.094Z,17.20
2019-04-27T18:33:48.962Z,17.10
2019-04-27T18:36:32.435Z,17.00
2019-04-27T18:39:10.459Z,16.90
2019-04-27T18:41:49.430Z,16.80
2019-04-27T18:44:28.056Z,16.70
2019-04-27T18:47:02.487Z,16.60
2019-04-27T18:50:07.379Z,16.40
2019-04-27T18:52:47.287Z,16.30
2019-04-27T18:55:20.627Z,16.20
2019-04-27T18:57:54.712Z,16.10
2019-04-27T19:00:29.575Z,15.90
2019-04-27T19:03:06.111Z,15.80
2019-04-27T19:05:40.711Z,15.90
2019-04-27T19:08:17.790Z,15.80
2019-04-27T19:10:55.264Z,15.80
2019-04-27T19:13:30.470Z,15.70
2019-04-27T19:16:05.813Z,15.60
2019-04-27T19:18:40.658Z,15.60
2019-04-27T19:21:20.921Z,15.50
2019-04-27T19:24:15.032Z,15.50
2019-04-27T19:27:17.911Z,15.40
2019-04-27T19:29:50.025Z,15.30
2019-04-27T19:32:25.411Z,14.80
2019-04-27T19:35:02.038Z,14.50
2019-04-27T19:37:36.019Z,14.40
2019-04-27T19:40:11.167Z,14.30
2019-04-27T19:42:45.140Z,14.30
2019-04-27T19:45:35.085Z,14.20
2019-04-27T19:48:18.178Z,14.30
2019-04-27T19:50:56.907Z,14.30
2019-04-27T19:53:52.075Z,14.30
2019-04-27T19:56:31.557Z,14.30
2019-04-27T19:59:18.811Z,14.30
2019-04-27T20:01:58.906Z,14.20
2019-04-27T20:04:42.978Z,14.20
2019-04-27T20:07:38.053Z,14.20
2019-04-27T20:10:32.210Z,14.20
2019-04-27T20:13:07.836Z,14.10
2019-04-27T20:15:45.467Z,13.90
2019-04-27T20:18:25.107Z,13.90
2019-04-27T20:21:05.800Z,13.80
2019-04-27T20:23:55.210Z,13.80
2019-04-27T20:26:42.031Z,13.70
2019-04-27T20:29:18.038Z,13.60
2019-04-27T20:31:58.247Z,13.60
2019-04-27T20:34:36.238Z,13.60
2019-04-27T20:37:31.391Z,13.50
2019-04-27T20:40:12.887Z,13.50
2019-04-27T20:43:27.361Z,13.40
2019-04-27T20:46:05.841Z,13.40
2019-04-27T20:48:46.400Z,13.40
2019-04-27T20:51:43.891Z,13.40
2019-04-27T20:54:30.630Z,13.30
2019-04-27T20:57:15.700Z,13.20
2019-04-27T20:59:54.597Z,13.20
2019-04-27T21:02:57.508Z,13.00
2019-04-27T21:05:46.593Z,13.00
2019-04-27T21:08:27.069Z,13.00
2019-04-27T21:11:09.235Z,13.00
2019-04-27T21:14:11.076Z,12.90
2019-04-27T21:16:51.886Z,12.80
2019-04-27T21:19:27.602Z,12.70
2019-04-27T21:22:16.268Z,12.80
2019-04-27T21:24:51.545Z,12.80
2019-04-27T21:27:32.373Z,12.80
2019-04-27T21:30:11.251Z,12.80
2019-04-27T21:33:01.206Z,12.80
2019-04-27T21:35:39.439Z,12.80
2019-04-27T21:38:18.563Z,12.70
2019-04-27T21:40:56.803Z,12.70
2019-04-27T21:43:45.758Z,12.60
2019-04-27T21:46:31.617Z,12.50
2019-04-27T21:49:15.513Z,12.40
2019-04-27T21:52:14.699Z,12.20
2019-04-27T21:54:55.002Z,12.20
2019-04-27T21:57:32.928Z,12.20
2019-04-27T22:00:28.662Z,12.10
2019-04-27T22:03:12.306Z,12.10
2019-04-27T22:05:52.190Z,12.00
2019-04-27T22:08:38.102Z,11.90
2019-04-27T22:11:18.577Z,11.90
2019-04-27T22:13:58.978Z,11.90
2019-04-27T22:16:36.688Z,11.90
2019-04-27T22:19:22.357Z,11.80
2019-04-27T22:22:05.896Z,11.70
2019-04-27T22:24:44.159Z,11.60
2019-04-27T22:27:23.073Z,11.50
2019-04-27T22:30:06.195Z,11.50
2019-04-27T22:32:51.505Z,11.50
2019-04-27T22:35:33.839Z,11.40
2019-04-27T22:38:21.273Z,11.30
2019-04-27T22:41:13.010Z,11.20
2019-04-27T22:44:18.436Z,11.20
2019-04-27T22:47:13.303Z,11.20
2019-04-27T22:49:55.451Z,11.20
2019-04-27T22:52:34.197Z,11.40
2019-04-27T22:55:11.781Z,11.40
2019-04-27T22:57:56.350Z,11.30
2019-04-27T23:00:52.177Z,11.30
2019-04-27T23:03:34.168Z,11.30
2019-04-27T23:06:11.660Z,11.10
2019-04-27T23:08:51.492Z,11.10
2019-04-27T23:11:38.678Z,11.00
2019-04-27T23:14:37.373Z,11.00
2019-04-27T23:17:31.539Z,11.00
2019-04-27T23:20:11.609Z,11.00
2019-04-27T23:22:55.005Z,10.90
2019-04-27T23:25:31.582Z,10.90
2019-04-27T23:28:14.896Z,10.90
2019-04-27T23:31:06.808Z,10.90
2019-04-27T23:33:46.888Z,10.90
2019-04-27T23:36:26.010Z,11.00
2019-04-27T23:39:06.104Z,10.90
2019-04-27T23:41:45.418Z,10.90
2019-04-27T23:44:36.752Z,10.90
2019-04-27T23:47:19.963Z,10.90
2019-04-27T23:50:03.854Z,10.90
2019-04-27T23:53:08.841Z,10.80
2019-04-27T23:55:52.665Z,10.70
2019-04-27T23:58:31.745Z,10.60
